Barber, Kansas
Current Conditions -  °F | °C
As of 9:35 PM on Friday 24 Oct 2014 (Local Time) from KPTS Reporting Station
Clear Clear  
Wind Chill: 64°   Ceiling: Unl
Heat Index: 64°   Visibility: 10mi
Dew Point: 62°   Wind: 7mph
Humidity: 95%   Direction: 210°SSW
Pressure: 30.03"   Gusts: NA
Location:  37.5542°N, 94.6826°W
Report Text: KPTS 250235Z AUTO 21006KT 10SM CLR 18/17 A3003 RMK AO2 T01770169
Loading
Personal Weather Stations






























Interactive Weather Map
Tropical Storm Tracking
New forecast layout! Learn more

10-Day Weather Forecast

Advertisements
Track Severe Weather on mobile